createdAt,value
2017-05-19T00:01:52.084Z,15.50
2017-05-19T00:04:20.592Z,15.50
2017-05-19T00:06:49.104Z,15.50
2017-05-19T00:09:17.722Z,15.40
2017-05-19T00:11:46.235Z,15.40
2017-05-19T00:14:14.745Z,15.40
2017-05-19T00:16:43.293Z,15.40
2017-05-19T00:19:11.798Z,15.40
2017-05-19T00:21:40.311Z,15.40
2017-05-19T00:24:08.864Z,15.40
2017-05-19T00:26:37.376Z,15.30
2017-05-19T00:29:05.892Z,15.30
2017-05-19T00:31:34.436Z,15.30
2017-05-19T00:34:03.015Z,15.30
2017-05-19T00:36:31.541Z,15.20
2017-05-19T00:39:00.104Z,15.10
2017-05-19T00:41:28.617Z,15.10
2017-05-19T00:43:57.234Z,15.10
2017-05-19T00:46:25.799Z,15.00
2017-05-19T00:48:54.318Z,15.00
2017-05-19T00:51:22.823Z,15.00
2017-05-19T00:53:51.372Z,15.00
2017-05-19T00:56:19.931Z,14.90
2017-05-19T00:58:48.461Z,14.90
2017-05-19T01:01:17.040Z,14.80
2017-05-19T01:03:45.550Z,14.80
2017-05-19T01:06:14.052Z,14.70
2017-05-19T01:08:42.605Z,14.70
2017-05-19T01:11:11.109Z,14.70
2017-05-19T01:13:39.625Z,14.70
2017-05-19T01:16:08.188Z,14.60
2017-05-19T01:18:36.700Z,14.60
2017-05-19T01:21:05.326Z,14.50
2017-05-19T01:23:33.882Z,14.50
2017-05-19T01:26:03.438Z,14.50
2017-05-19T01:28:31.946Z,14.50
2017-05-19T01:31:00.494Z,14.40
2017-05-19T01:33:29.054Z,14.40
2017-05-19T01:35:57.605Z,14.30
2017-05-19T01:38:26.407Z,14.20
2017-05-19T01:40:54.927Z,14.20
2017-05-19T01:43:23.428Z,14.10
2017-05-19T01:45:52.004Z,14.00
2017-05-19T01:48:20.527Z,14.00
2017-05-19T01:50:49.062Z,14.10
2017-05-19T01:53:17.669Z,14.00
2017-05-19T01:55:46.166Z,14.00
2017-05-19T01:58:14.679Z,14.00
2017-05-19T02:00:43.221Z,14.00
2017-05-19T02:03:11.733Z,14.00
2017-05-19T02:05:40.241Z,13.90
2017-05-19T02:08:08.793Z,13.80
2017-05-19T02:10:37.299Z,13.80
2017-05-19T02:13:05.825Z,13.80
2017-05-19T02:15:34.372Z,13.80
2017-05-19T02:18:02.882Z,13.80
2017-05-19T02:20:31.459Z,13.80
2017-05-19T02:23:00.014Z,13.80
2017-05-19T02:25:28.524Z,13.80
2017-05-19T02:27:57.034Z,13.60
2017-05-19T02:30:25.575Z,13.50
2017-05-19T02:32:54.082Z,13.50
2017-05-19T02:35:22.593Z,13.50
2017-05-19T02:37:51.145Z,13.50
2017-05-19T02:40:19.675Z,13.40
2017-05-19T02:42:48.182Z,13.40
2017-05-19T02:45:16.741Z,13.40
2017-05-19T02:47:45.249Z,13.30
2017-05-19T02:50:13.760Z,13.40
2017-05-19T02:52:42.309Z,13.40
2017-05-19T02:55:10.816Z,13.30
2017-05-19T02:57:39.325Z,13.30
2017-05-19T03:00:07.877Z,13.40
2017-05-19T03:02:36.377Z,13.40
2017-05-19T03:05:04.893Z,13.30
2017-05-19T03:07:33.445Z,13.30
2017-05-19T03:10:01.962Z,13.30
2017-05-19T03:12:30.473Z,13.20
2017-05-19T03:14:59.026Z,13.10
2017-05-19T03:17:27.529Z,13.20
2017-05-19T03:19:56.037Z,13.20
2017-05-19T03:22:24.589Z,13.20
2017-05-19T03:24:53.100Z,13.30
2017-05-19T03:27:21.608Z,13.30
2017-05-19T03:29:50.155Z,13.40
2017-05-19T03:32:18.717Z,13.70
2017-05-19T03:34:47.232Z,14.50
2017-05-19T03:37:15.784Z,15.60
2017-05-19T03:39:44.297Z,16.70
2017-05-19T03:42:12.801Z,17.70
2017-05-19T03:44:41.350Z,17.90
2017-05-19T03:47:09.861Z,18.00
2017-05-19T03:49:38.376Z,18.10
2017-05-19T03:52:06.955Z,18.40
2017-05-19T03:54:35.462Z,19.20
2017-05-19T03:57:03.972Z,20.00
2017-05-19T03:59:32.545Z,20.90
2017-05-19T04:02:01.048Z,21.60
2017-05-19T04:04:29.548Z,21.80
2017-05-19T04:06:58.094Z,21.90
2017-05-19T04:09:26.597Z,21.80
2017-05-19T04:11:55.123Z,21.60
2017-05-19T04:14:23.700Z,21.80
2017-05-19T04:16:52.225Z,22.60
2017-05-19T04:19:20.734Z,23.30
2017-05-19T04:21:49.283Z,23.80
2017-05-19T04:24:17.788Z,24.70
2017-05-19T04:26:46.307Z,25.20
2017-05-19T04:29:14.864Z,25.50
2017-05-19T04:31:43.374Z,25.90
2017-05-19T04:34:11.889Z,26.20
2017-05-19T04:36:40.436Z,26.10
2017-05-19T04:39:08.940Z,26.40
2017-05-19T04:41:37.448Z,25.80
2017-05-19T04:44:06.008Z,25.20
2017-05-19T04:46:34.516Z,24.60
2017-05-19T04:49:03.066Z,23.50
2017-05-19T04:51:31.645Z,23.10
2017-05-19T04:54:00.171Z,22.70
2017-05-19T04:56:28.681Z,22.80
2017-05-19T04:58:57.233Z,22.80
2017-05-19T05:01:25.739Z,22.60
2017-05-19T05:03:54.260Z,22.30
2017-05-19T05:06:22.813Z,22.40
2017-05-19T05:08:51.325Z,23.10
2017-05-19T05:11:19.836Z,24.00
2017-05-19T05:13:48.392Z,24.30
2017-05-19T05:16:16.895Z,25.00
2017-05-19T05:18:45.396Z,26.20
2017-05-19T05:21:13.980Z,26.80
2017-05-19T05:23:42.488Z,28.10
2017-05-19T05:26:11.056Z,28.30
2017-05-19T05:28:39.881Z,28.80
2017-05-19T05:31:08.391Z,30.20
2017-05-19T05:33:36.896Z,30.40
2017-05-19T05:36:05.441Z,30.20
2017-05-19T05:38:33.954Z,30.60
2017-05-19T05:41:02.459Z,30.60
2017-05-19T05:43:31.010Z,31.00
2017-05-19T05:45:59.519Z,31.60
2017-05-19T05:48:28.026Z,32.10
2017-05-19T05:50:56.598Z,33.20
2017-05-19T05:53:25.125Z,34.20
2017-05-19T05:55:53.633Z,35.10
2017-05-19T05:58:22.222Z,33.40
2017-05-19T06:00:50.735Z,33.10
2017-05-19T06:03:19.250Z,34.20
2017-05-19T06:05:47.817Z,34.00
2017-05-19T06:08:16.325Z,34.10
2017-05-19T06:10:44.837Z,33.80
2017-05-19T06:13:13.432Z,33.40
2017-05-19T06:15:41.955Z,33.50
2017-05-19T06:18:10.472Z,34.20
2017-05-19T06:20:39.025Z,34.40
2017-05-19T06:23:07.535Z,34.70
2017-05-19T06:25:36.032Z,35.40
2017-05-19T06:28:04.579Z,35.60
2017-05-19T06:30:33.087Z,36.20
2017-05-19T06:33:03.488Z,36.80
2017-05-19T06:35:32.047Z,35.70
2017-05-19T06:38:00.531Z,35.60
2017-05-19T06:40:29.014Z,35.60
2017-05-19T06:42:57.550Z,35.50
2017-05-19T06:45:26.037Z,36.40
2017-05-19T06:47:54.523Z,37.10
2017-05-19T06:50:23.067Z,37.30
2017-05-19T06:52:51.563Z,37.80
2017-05-19T06:55:20.064Z,38.50
2017-05-19T06:57:48.608Z,38.00
2017-05-19T07:00:17.099Z,38.20
2017-05-19T07:02:45.592Z,37.80
2017-05-19T07:05:14.126Z,37.60
2017-05-19T07:07:42.628Z,37.60
2017-05-19T07:10:11.147Z,37.50
2017-05-19T07:12:39.683Z,37.80
2017-05-19T07:15:08.169Z,37.70
2017-05-19T07:17:36.659Z,37.40
2017-05-19T07:20:05.196Z,36.80
2017-05-19T07:22:33.693Z,36.60
2017-05-19T07:25:02.192Z,36.90
2017-05-19T07:27:30.724Z,37.80
2017-05-19T07:29:59.214Z,37.90
2017-05-19T07:32:27.703Z,37.90
2017-05-19T07:34:56.259Z,39.00
2017-05-19T07:37:24.747Z,39.80
2017-05-19T07:39:53.252Z,40.00
2017-05-19T07:42:21.787Z,39.60
2017-05-19T07:44:50.281Z,39.60
2017-05-19T07:47:18.777Z,38.80
2017-05-19T07:49:47.315Z,39.40
2017-05-19T07:52:15.810Z,40.50
2017-05-19T07:54:44.304Z,39.00
2017-05-19T07:57:12.868Z,38.50
2017-05-19T07:59:41.369Z,39.60
2017-05-19T08:02:09.859Z,41.30
2017-05-19T08:04:38.396Z,42.30
2017-05-19T08:07:06.892Z,40.50
2017-05-19T08:09:35.385Z,38.10
2017-05-19T08:12:03.919Z,37.70
2017-05-19T08:14:32.415Z,37.90
2017-05-19T08:17:00.905Z,37.60
2017-05-19T08:19:29.435Z,37.80
2017-05-19T08:21:57.918Z,37.00
2017-05-19T08:24:26.405Z,38.20
2017-05-19T08:26:54.943Z,38.40
2017-05-19T08:29:23.439Z,37.60
2017-05-19T08:31:51.931Z,37.50
2017-05-19T08:34:20.471Z,35.70
2017-05-19T08:36:48.960Z,35.90
2017-05-19T08:39:17.462Z,37.00
2017-05-19T08:41:45.999Z,37.40
2017-05-19T08:44:14.492Z,38.10
2017-05-19T08:46:42.987Z,39.10
2017-05-19T08:49:11.538Z,38.50
2017-05-19T08:51:40.029Z,38.80
2017-05-19T08:54:08.519Z,38.80
2017-05-19T08:56:37.048Z,39.60
2017-05-19T08:59:05.535Z,39.00
2017-05-19T09:01:34.022Z,38.90
2017-05-19T09:04:02.555Z,38.40
2017-05-19T09:06:31.042Z,38.70
2017-05-19T09:08:59.539Z,38.10
2017-05-19T09:11:28.075Z,37.80
2017-05-19T09:13:56.567Z,36.90
2017-05-19T09:16:25.065Z,37.10
2017-05-19T09:18:53.615Z,37.50
2017-05-19T09:21:22.110Z,38.90
2017-05-19T09:23:50.598Z,37.10
2017-05-19T09:26:19.126Z,35.80
2017-05-19T09:28:47.610Z,34.30
2017-05-19T09:31:16.095Z,32.90
2017-05-19T09:33:44.631Z,31.80
2017-05-19T09:36:13.126Z,31.30
2017-05-19T09:38:41.614Z,31.10
2017-05-19T09:41:10.146Z,30.20
2017-05-19T09:43:38.647Z,29.90
2017-05-19T09:46:07.135Z,29.40
2017-05-19T09:48:35.673Z,29.00
2017-05-19T09:51:04.163Z,28.80
2017-05-19T09:53:32.670Z,28.60
2017-05-19T09:56:01.207Z,28.10
2017-05-19T09:58:29.694Z,28.30
2017-05-19T10:00:58.196Z,28.50
2017-05-19T10:03:26.731Z,28.40
2017-05-19T10:05:55.219Z,28.00
2017-05-19T10:08:23.718Z,27.50
2017-05-19T10:10:52.243Z,27.30
2017-05-19T10:13:20.727Z,27.40
2017-05-19T10:15:49.210Z,27.40
2017-05-19T10:18:17.738Z,27.40
2017-05-19T10:20:46.226Z,27.50
2017-05-19T10:23:14.725Z,27.70
2017-05-19T10:25:43.259Z,27.50
2017-05-19T10:28:11.751Z,27.50
2017-05-19T10:30:40.251Z,27.20
2017-05-19T10:33:08.788Z,27.40
2017-05-19T10:35:37.280Z,27.40
2017-05-19T10:38:05.771Z,27.20
2017-05-19T10:40:34.302Z,27.20
2017-05-19T10:43:02.791Z,27.10
2017-05-19T10:45:31.282Z,27.20
2017-05-19T10:47:59.834Z,27.50
2017-05-19T10:50:28.323Z,27.60
2017-05-19T10:52:56.820Z,27.60
2017-05-19T10:55:25.364Z,27.70
2017-05-19T10:57:53.864Z,27.80
2017-05-19T11:00:22.347Z,27.60
2017-05-19T11:02:50.878Z,27.60
2017-05-19T11:05:19.366Z,27.70
2017-05-19T11:07:47.863Z,27.80
2017-05-19T11:10:16.767Z,27.70
2017-05-19T11:12:45.254Z,27.50
2017-05-19T11:15:13.740Z,27.50
2017-05-19T11:17:42.267Z,27.40
2017-05-19T11:20:10.391Z,27.50
2017-05-19T11:22:38.885Z,27.30
2017-05-19T11:25:07.418Z,27.40
2017-05-19T11:27:35.920Z,27.30
2017-05-19T11:30:04.419Z,27.30
2017-05-19T11:32:32.951Z,27.10
2017-05-19T11:35:01.439Z,27.10
2017-05-19T11:37:29.933Z,27.10
2017-05-19T11:39:58.474Z,27.40
2017-05-19T11:42:26.961Z,27.30
2017-05-19T11:44:55.451Z,27.40
2017-05-19T11:47:23.979Z,27.10
2017-05-19T11:49:52.462Z,26.90
2017-05-19T11:52:20.947Z,27.20
2017-05-19T11:54:49.477Z,27.40
2017-05-19T11:57:17.969Z,27.50
2017-05-19T11:59:46.462Z,27.80
2017-05-19T12:02:14.987Z,27.80
2017-05-19T12:04:43.488Z,27.60
2017-05-19T12:07:11.981Z,27.70
2017-05-19T12:10:02.278Z,27.60
2017-05-19T12:12:30.762Z,27.40
2017-05-19T12:14:59.253Z,27.50
2017-05-19T12:17:27.795Z,27.30
2017-05-19T12:19:56.290Z,27.20
2017-05-19T12:22:24.783Z,27.20
2017-05-19T12:24:53.312Z,27.30
2017-05-19T12:27:21.816Z,27.20
2017-05-19T12:29:50.311Z,27.20
2017-05-19T12:32:18.852Z,27.30
2017-05-19T12:34:47.342Z,27.40
2017-05-19T12:37:15.836Z,27.30
2017-05-19T12:39:44.520Z,27.30
2017-05-19T12:42:13.007Z,27.30
2017-05-19T12:44:41.500Z,27.40
2017-05-19T12:47:10.034Z,27.60
2017-05-19T12:49:38.531Z,27.60
2017-05-19T12:52:07.014Z,27.40
2017-05-19T12:54:35.556Z,27.50
2017-05-19T12:57:04.057Z,27.60
2017-05-19T12:59:32.556Z,27.60
2017-05-19T13:02:01.100Z,27.50
2017-05-19T13:04:29.611Z,27.40
2017-05-19T13:06:58.113Z,27.50
2017-05-19T13:09:26.652Z,27.30
2017-05-19T13:11:55.154Z,27.10
2017-05-19T13:14:23.653Z,27.20
2017-05-19T13:16:52.207Z,27.30
2017-05-19T13:19:20.714Z,27.40
2017-05-19T13:21:49.218Z,27.50
2017-05-19T13:24:17.765Z,27.50
2017-05-19T13:26:46.261Z,27.60
2017-05-19T13:29:14.763Z,27.40
2017-05-19T13:31:43.312Z,27.30
2017-05-19T13:34:11.817Z,27.40
2017-05-19T13:36:40.321Z,27.30
2017-05-19T13:39:08.859Z,27.30
2017-05-19T13:41:37.358Z,27.30
2017-05-19T13:44:05.856Z,27.10
2017-05-19T13:46:34.405Z,27.20
2017-05-19T13:49:02.899Z,27.20
2017-05-19T13:51:31.405Z,27.00
2017-05-19T13:53:59.949Z,27.10
2017-05-19T13:56:28.453Z,27.20
2017-05-19T13:58:56.955Z,27.20
2017-05-19T14:01:25.522Z,27.10
2017-05-19T14:03:54.034Z,27.00
2017-05-19T14:06:22.544Z,27.00
2017-05-19T14:08:51.088Z,27.00
2017-05-19T14:11:19.584Z,27.00
2017-05-19T14:13:48.089Z,27.10
2017-05-19T14:16:16.637Z,27.10
2017-05-19T14:18:45.150Z,27.00
2017-05-19T14:21:13.660Z,27.00
2017-05-19T14:23:42.205Z,27.10
2017-05-19T14:26:10.708Z,27.10
2017-05-19T14:28:39.215Z,27.10
2017-05-19T14:31:07.757Z,27.20
2017-05-19T14:33:36.253Z,27.30
2017-05-19T14:36:04.760Z,27.30
2017-05-19T14:38:33.305Z,27.40
2017-05-19T14:41:01.824Z,27.30
2017-05-19T14:43:30.333Z,27.20
2017-05-19T14:45:58.870Z,27.00
2017-05-19T14:48:27.380Z,26.90
2017-05-19T14:50:55.877Z,26.90
2017-05-19T14:53:24.437Z,26.90
2017-05-19T14:55:52.936Z,27.00
2017-05-19T14:58:21.435Z,27.00
2017-05-19T15:00:49.976Z,26.90
2017-05-19T15:03:18.484Z,27.00
2017-05-19T15:05:47.054Z,27.00
2017-05-19T15:08:15.597Z,26.90
2017-05-19T15:10:44.095Z,26.90
2017-05-19T15:13:12.602Z,26.90
2017-05-19T15:15:41.183Z,26.90
2017-05-19T15:18:09.685Z,26.80
2017-05-19T15:20:38.188Z,26.80
2017-05-19T15:23:06.728Z,26.90
2017-05-19T15:25:35.234Z,26.80
2017-05-19T15:28:03.732Z,26.90
2017-05-19T15:30:32.268Z,27.00
2017-05-19T15:33:00.771Z,26.90
2017-05-19T15:35:29.276Z,26.90
2017-05-19T15:37:57.839Z,26.90
2017-05-19T15:40:26.341Z,26.90
2017-05-19T15:42:54.840Z,26.90
2017-05-19T15:45:23.397Z,26.80
2017-05-19T15:47:51.902Z,26.70
2017-05-19T15:50:20.404Z,26.80
2017-05-19T15:52:49.360Z,26.80
2017-05-19T15:55:17.865Z,26.70
2017-05-19T15:57:46.371Z,26.70
2017-05-19T16:00:14.912Z,26.70
2017-05-19T16:02:43.458Z,26.70
2017-05-19T16:05:11.985Z,26.60
2017-05-19T16:07:40.561Z,26.60
2017-05-19T16:10:09.070Z,26.60
2017-05-19T16:12:37.627Z,26.60
2017-05-19T16:15:06.188Z,26.50
2017-05-19T16:17:34.724Z,26.50
2017-05-19T16:20:04.032Z,26.60
2017-05-19T16:22:32.855Z,26.50
2017-05-19T16:25:01.364Z,26.50
2017-05-19T16:27:29.872Z,26.50
2017-05-19T16:29:58.429Z,26.40
2017-05-19T16:32:26.966Z,26.30
2017-05-19T16:34:55.568Z,26.40
2017-05-19T16:37:24.132Z,26.30
2017-05-19T16:39:52.651Z,26.30
2017-05-19T16:42:21.153Z,26.20
2017-05-19T16:44:49.699Z,26.20
2017-05-19T16:47:18.205Z,26.20
2017-05-19T16:49:46.714Z,26.20
2017-05-19T16:52:15.257Z,26.10
2017-05-19T16:54:43.757Z,26.10
2017-05-19T16:57:12.263Z,26.10
2017-05-19T16:59:40.801Z,26.00
2017-05-19T17:02:09.304Z,26.00
2017-05-19T17:04:37.810Z,26.00
2017-05-19T17:07:06.353Z,25.90
2017-05-19T17:09:34.843Z,25.90
2017-05-19T17:12:03.358Z,25.80
2017-05-19T17:14:31.917Z,25.80
2017-05-19T17:17:00.426Z,25.70
2017-05-19T17:19:28.934Z,25.70
2017-05-19T17:21:57.476Z,25.70
2017-05-19T17:24:25.998Z,25.50
2017-05-19T17:26:54.500Z,25.50
2017-05-19T17:29:23.040Z,25.40
2017-05-19T17:31:51.546Z,25.40
2017-05-19T17:34:20.042Z,25.30
2017-05-19T17:36:48.586Z,25.40
2017-05-19T17:39:17.093Z,25.30
2017-05-19T17:41:45.595Z,25.30
2017-05-19T17:44:14.152Z,25.20
2017-05-19T17:46:42.657Z,25.10
2017-05-19T17:49:11.173Z,25.10
2017-05-19T17:51:39.731Z,25.10
2017-05-19T17:54:08.232Z,25.10
2017-05-19T17:56:36.741Z,25.00
2017-05-19T17:59:05.419Z,25.10
2017-05-19T18:01:33.925Z,24.90
2017-05-19T18:04:02.435Z,24.70
2017-05-19T18:06:30.997Z,24.60
2017-05-19T18:08:59.515Z,24.40
2017-05-19T18:11:28.036Z,24.40
2017-05-19T18:13:56.576Z,24.30
2017-05-19T18:16:25.082Z,24.10
2017-05-19T18:18:53.688Z,24.00
2017-05-19T18:21:22.235Z,24.00
2017-05-19T18:23:50.738Z,23.90
2017-05-19T18:26:19.264Z,23.90
2017-05-19T18:28:47.809Z,23.80
2017-05-19T18:31:16.311Z,23.60
2017-05-19T18:33:44.816Z,23.40
2017-05-19T18:36:13.351Z,23.30
2017-05-19T18:38:41.873Z,23.10
2017-05-19T18:41:10.401Z,23.10
2017-05-19T18:43:38.945Z,22.90
2017-05-19T18:46:07.448Z,22.80
2017-05-19T18:48:35.959Z,22.60
2017-05-19T18:51:04.530Z,22.50
2017-05-19T18:54:00.297Z,22.50
2017-05-19T18:56:28.800Z,22.40
2017-05-19T18:58:57.303Z,22.20
2017-05-19T19:01:25.854Z,22.10
2017-05-19T19:03:54.362Z,22.10
2017-05-19T19:06:22.868Z,22.10
2017-05-19T19:08:51.409Z,22.10
2017-05-19T19:11:19.912Z,22.10
2017-05-19T19:13:48.412Z,22.10
2017-05-19T19:16:16.969Z,22.10
2017-05-19T19:18:45.477Z,22.00
2017-05-19T19:21:13.993Z,22.00
2017-05-19T19:23:42.568Z,22.00
2017-05-19T19:26:11.077Z,21.90
2017-05-19T19:28:39.580Z,21.80
2017-05-19T19:31:08.131Z,21.80
2017-05-19T19:33:36.639Z,21.70
2017-05-19T19:36:05.152Z,21.60
2017-05-19T19:38:33.693Z,21.50
2017-05-19T19:41:02.198Z,21.40
2017-05-19T19:43:30.715Z,21.40
2017-05-19T19:45:59.265Z,21.30
2017-05-19T19:48:27.765Z,21.20
2017-05-19T19:50:56.289Z,21.10
2017-05-19T19:53:24.855Z,20.90
2017-05-19T19:55:53.358Z,20.80
2017-05-19T19:58:21.873Z,20.80
2017-05-19T20:00:50.572Z,20.70
2017-05-19T20:03:19.097Z,20.80
2017-05-19T20:05:47.611Z,20.80
2017-05-19T20:08:16.186Z,20.80
2017-05-19T20:10:44.688Z,20.80
2017-05-19T20:13:13.203Z,20.70
2017-05-19T20:15:41.883Z,20.70
2017-05-19T20:18:11.309Z,20.80
2017-05-19T20:20:40.081Z,20.80
2017-05-19T20:23:08.663Z,20.80
2017-05-19T20:25:37.237Z,20.80
2017-05-19T20:28:06.462Z,20.80
2017-05-19T20:30:35.119Z,20.80
2017-05-19T20:33:03.709Z,20.70
2017-05-19T20:35:32.299Z,20.60
2017-05-19T20:38:01.036Z,20.50
2017-05-19T20:40:29.541Z,20.50
2017-05-19T20:42:58.290Z,20.30
2017-05-19T20:45:26.862Z,20.20
2017-05-19T20:47:55.386Z,20.00
2017-05-19T20:50:23.916Z,19.90
2017-05-19T20:52:52.507Z,19.80
2017-05-19T20:55:21.086Z,19.70
2017-05-19T20:57:49.611Z,19.50
2017-05-19T21:00:18.188Z,19.40
2017-05-19T21:02:46.704Z,19.30
2017-05-19T21:05:15.248Z,19.10
2017-05-19T21:07:43.800Z,19.00
2017-05-19T21:10:12.299Z,18.90
2017-05-19T21:12:40.824Z,18.80
2017-05-19T21:15:09.381Z,18.80
2017-05-19T21:17:37.885Z,18.80
2017-05-19T21:20:06.392Z,18.70
2017-05-19T21:22:35.549Z,18.60
2017-05-19T21:25:04.198Z,18.60
2017-05-19T21:27:32.759Z,18.50
2017-05-19T21:30:01.324Z,18.60
2017-05-19T21:32:29.857Z,18.50
2017-05-19T21:34:58.379Z,18.40
2017-05-19T21:37:26.924Z,18.30
2017-05-19T21:39:55.428Z,18.30
2017-05-19T21:42:23.943Z,18.20
2017-05-19T21:44:52.505Z,18.20
2017-05-19T21:47:21.015Z,18.10
2017-05-19T21:49:49.525Z,18.00
2017-05-19T21:52:18.100Z,17.90
2017-05-19T21:54:46.604Z,17.90
2017-05-19T21:57:15.105Z,17.80
2017-05-19T21:59:43.652Z,17.80
2017-05-19T22:02:12.159Z,17.70
2017-05-19T22:04:40.660Z,17.60
2017-05-19T22:07:09.210Z,17.60
2017-05-19T22:09:37.712Z,17.60
2017-05-19T22:12:06.214Z,17.60
2017-05-19T22:14:34.766Z,17.60
2017-05-19T22:17:03.269Z,17.60
2017-05-19T22:19:31.776Z,17.60
2017-05-19T22:22:00.320Z,17.60
2017-05-19T22:24:28.825Z,17.50
2017-05-19T22:26:57.332Z,17.50
2017-05-19T22:29:25.880Z,17.50
2017-05-19T22:31:54.387Z,17.50
2017-05-19T22:34:22.898Z,17.60
2017-05-19T22:36:51.448Z,17.70
2017-05-19T22:39:19.956Z,17.50
2017-05-19T22:41:48.480Z,17.40
2017-05-19T22:44:17.023Z,17.30
2017-05-19T22:46:45.525Z,17.20
2017-05-19T22:49:14.213Z,17.30
2017-05-19T22:51:42.762Z,17.40
2017-05-19T22:54:11.264Z,17.40
2017-05-19T22:56:39.779Z,17.40
2017-05-19T22:59:08.326Z,17.40
2017-05-19T23:01:36.829Z,17.50
2017-05-19T23:04:05.336Z,17.50
2017-05-19T23:06:33.880Z,17.50
2017-05-19T23:09:02.398Z,17.40
2017-05-19T23:11:30.909Z,17.40
2017-05-19T23:13:59.447Z,17.30
2017-05-19T23:16:27.952Z,17.20
2017-05-19T23:18:56.460Z,17.20
2017-05-19T23:21:25.053Z,17.10
2017-05-19T23:23:53.561Z,17.10
2017-05-19T23:26:22.069Z,17.10
2017-05-19T23:28:50.616Z,17.10
2017-05-19T23:31:19.130Z,17.10
2017-05-19T23:33:47.641Z,17.00
2017-05-19T23:36:16.199Z,17.00
2017-05-19T23:38:44.730Z,16.90
2017-05-19T23:41:13.254Z,16.90
2017-05-19T23:43:41.817Z,16.90
2017-05-19T23:46:10.323Z,16.80
2017-05-19T23:48:38.824Z,16.80
2017-05-19T23:51:07.373Z,16.90
2017-05-19T23:53:35.881Z,16.90
2017-05-19T23:56:04.384Z,16.80
2017-05-19T23:58:32.942Z,16.70
